Time;durP1;ratioP1;P1;durP2;ratioP2;P2;SDS_P1;SDS_P2;PMS_P1;PMS_P2;Temp;Humidity;BMP_temperature;BMP_pressure;BME280_temperature;BME280_humidity;BME280_pressure;Samples;Min_cycle;Max_cycle;Signal;HPM_P1;HPM_P2
2022/02/16 00:01:04;;;;;;;21.65;20.55;;;6.20;72.40;;;;;;5032144;28;20219;-72
2022/02/16 00:03:31;;;;;;;21.20;19.88;;;6.10;72.60;;;;;;5032299;28;20193;-72
2022/02/16 00:05:58;;;;;;;22.58;21.38;;;6.10;72.80;;;;;;5032373;28;20199;-72
2022/02/16 00:08:25;;;;;;;21.58;20.00;;;6.10;72.40;;;;;;5032162;28;20213;-72
2022/02/16 00:10:52;;;;;;;21.95;20.42;;;6.20;72.10;;;;;;5031926;28;20649;-72
2022/02/16 00:13:19;;;;;;;21.50;20.13;;;6.20;72.30;;;;;;5032326;28;20544;-72
2022/02/16 00:15:47;;;;;;;22.25;20.85;;;6.20;72.30;;;;;;5032088;28;20208;-72
2022/02/16 00:18:14;;;;;;;20.85;19.63;;;6.00;73.10;;;;;;5032124;28;20235;-72
2022/02/16 00:20:42;;;;;;;21.52;20.33;;;6.00;73.00;;;;;;5031881;28;20227;-72
2022/02/16 00:23:08;;;;;;;21.10;20.00;;;6.00;72.70;;;;;;5032002;28;20203;-72
2022/02/16 00:25:35;;;;;;;20.48;19.38;;;6.00;72.70;;;;;;5032033;28;20236;-72
2022/02/16 00:28:02;;;;;;;21.20;19.90;;;6.00;72.90;;;;;;5031852;28;20310;-72
2022/02/16 00:30:29;;;;;;;21.25;20.05;;;6.10;72.90;;;;;;5031917;28;20216;-72
2022/02/16 00:32:57;;;;;;;21.02;19.92;;;6.00;72.90;;;;;;5032038;28;20200;-72
2022/02/16 00:35:24;;;;;;;20.80;19.63;;;6.10;72.80;;;;;;5032063;28;20203;-72
2022/02/16 00:37:51;;;;;;;21.30;20.08;;;6.00;72.90;;;;;;5032077;28;20196;-73
2022/02/16 00:40:19;;;;;;;21.13;19.92;;;6.10;73.20;;;;;;5031936;28;20212;-72
2022/02/16 00:42:46;;;;;;;21.25;20.05;;;6.10;73.00;;;;;;5032130;28;20286;-73
2022/02/16 00:45:13;;;;;;;21.48;20.38;;;6.10;73.10;;;;;;5032053;28;20212;-72
2022/02/16 00:47:40;;;;;;;20.85;19.77;;;6.10;73.20;;;;;;5031643;28;20648;-72
2022/02/16 00:50:10;;;;;;;20.65;19.55;;;6.20;73.90;;;;;;5031761;28;20661;-72
2022/02/16 00:52:37;;;;;;;21.30;20.20;;;6.20;73.30;;;;;;5032012;28;20199;-73
2022/02/16 00:55:04;;;;;;;21.70;20.50;;;6.20;73.10;;;;;;5031849;28;20666;-72
2022/02/16 00:57:31;;;;;;;21.13;20.02;;;6.20;73.30;;;;;;5031940;28;20202;-73
2022/02/16 00:59:58;;;;;;;21.42;20.15;;;6.20;73.20;;;;;;5031690;28;20206;-72
2022/02/16 01:02:25;;;;;;;20.70;19.20;;;6.30;72.90;;;;;;5031730;28;20237;-72
2022/02/16 01:04:52;;;;;;;20.80;19.63;;;6.30;72.70;;;;;;5033898;28;20199;-72
2022/02/16 01:07:21;;;;;;;21.02;19.92;;;6.30;72.70;;;;;;5035276;28;20278;-73
2022/02/16 01:09:47;;;;;;;20.67;19.58;;;6.30;72.80;;;;;;5035262;28;20196;-72
2022/02/16 01:12:15;;;;;;;20.65;19.40;;;6.30;72.70;;;;;;5035344;28;20220;-72
2022/02/16 01:14:42;;;;;;;20.25;19.15;;;6.30;72.80;;;;;;5035289;28;20205;-73
2022/02/16 01:17:09;;;;;;;20.10;19.08;;;6.30;73.20;;;;;;5035255;28;20255;-73
2022/02/16 01:19:35;;;;;;;20.63;19.33;;;6.40;73.00;;;;;;5035084;28;20238;-73
2022/02/16 01:22:03;;;;;;;20.17;18.98;;;6.40;72.70;;;;;;5035151;28;20307;-73
2022/02/16 01:24:31;;;;;;;20.30;19.20;;;6.50;72.80;;;;;;5034943;28;20675;-73
2022/02/16 01:26:58;;;;;;;19.73;18.73;;;6.40;72.90;;;;;;5034986;28;20233;-72
2022/02/16 01:29:26;;;;;;;20.15;18.92;;;6.30;73.20;;;;;;5034681;28;20222;-73
2022/02/16 01:31:53;;;;;;;20.92;19.52;;;6.40;73.20;;;;;;5035139;28;20473;-73
2022/02/16 01:34:19;;;;;;;20.15;18.90;;;6.40;73.90;;;;;;5034919;28;20287;-73
2022/02/16 01:36:46;;;;;;;20.30;19.15;;;6.50;73.70;;;;;;5034994;28;20225;-72
2022/02/16 01:39:14;;;;;;;20.88;19.33;;;6.60;73.00;;;;;;5034715;28;20747;-72
2022/02/16 01:41:42;;;;;;;20.02;18.92;;;6.70;72.60;;;;;;5034663;28;20221;-72
2022/02/16 01:44:09;;;;;;;20.55;19.27;;;6.80;72.50;;;;;;5034764;28;20211;-73
2022/02/16 01:46:49;;;;;;;20.10;19.10;;;6.80;72.40;;;;;;5034305;28;20256;-72
2022/02/16 01:49:16;;;;;;;20.00;19.00;;;6.70;72.80;;;;;;5034617;28;20241;-73
2022/02/16 01:51:44;;;;;;;20.80;19.70;;;6.70;73.40;;;;;;5034661;28;20227;-73
2022/02/16 01:54:11;;;;;;;20.58;19.50;;;6.70;73.00;;;;;;5034637;28;20284;-72
2022/02/16 01:56:38;;;;;;;20.88;19.67;;;6.80;72.50;;;;;;5034430;28;20676;-73
2022/02/16 01:59:07;;;;;;;20.55;19.33;;;6.80;72.50;;;;;;5034406;28;20732;-73
2022/02/16 02:01:36;;;;;;;21.42;19.75;;;6.90;72.50;;;;;;5034514;28;20224;-72
2022/02/16 02:04:03;;;;;;;20.65;19.55;;;6.90;72.50;;;;;;5034297;28;20200;-72
2022/02/16 02:06:29;;;;;;;20.52;19.35;;;6.90;72.50;;;;;;5034304;28;20204;-72
2022/02/16 02:08:56;;;;;;;20.63;19.42;;;6.80;72.50;;;;;;5034095;28;20204;-73
2022/02/16 02:11:24;;;;;;;21.10;19.88;;;6.70;72.60;;;;;;5034099;28;20303;-72
2022/02/16 02:13:55;;;;;;;20.58;19.50;;;6.80;72.70;;;;;;5034395;28;20212;-72
2022/02/16 02:16:24;;;;;;;20.77;19.67;;;6.80;72.40;;;;;;5033784;28;20204;-72
2022/02/16 02:18:51;;;;;;;20.98;19.63;;;6.80;72.40;;;;;;5034174;28;20196;-72
2022/02/16 02:21:19;;;;;;;21.40;20.00;;;6.80;72.50;;;;;;5033864;28;20307;-72
2022/02/16 02:23:46;;;;;;;21.75;20.40;;;6.80;72.30;;;;;;5033871;28;20288;-72
2022/02/16 02:26:14;;;;;;;20.60;19.60;;;6.80;72.40;;;;;;5033760;28;20200;-73
2022/02/16 02:28:42;;;;;;;21.67;20.50;;;6.80;72.10;;;;;;5033724;28;20227;-72
2022/02/16 02:31:09;;;;;;;20.63;19.45;;;6.80;72.20;;;;;;5033792;28;20709;-72
2022/02/16 02:33:37;;;;;;;22.05;20.30;;;6.80;72.20;;;;;;5033832;28;20273;-72
2022/02/16 02:36:05;;;;;;;21.48;20.00;;;6.80;72.00;;;;;;5033757;28;20259;-72
2022/02/16 02:38:34;;;;;;;20.95;19.70;;;6.80;71.90;;;;;;5033813;28;20197;-72
2022/02/16 02:41:03;;;;;;;20.55;19.55;;;6.90;71.70;;;;;;5033662;28;20255;-73
2022/02/16 02:43:31;;;;;;;21.30;20.10;;;6.90;71.70;;;;;;5033893;28;20211;-72
2022/02/16 02:46:02;;;;;;;20.90;19.60;;;6.80;72.30;;;;;;5033448;28;20211;-72
2022/02/16 02:48:29;;;;;;;20.80;19.70;;;6.90;72.20;;;;;;5033319;28;20319;-73
2022/02/16 02:50:56;;;;;;;20.20;19.20;;;6.90;72.20;;;;;;5033213;28;20346;-72
2022/02/16 02:53:23;;;;;;;20.20;19.10;;;6.90;71.90;;;;;;5033507;28;20230;-73
2022/02/16 02:55:52;;;;;;;20.38;19.27;;;6.90;72.30;;;;;;5033450;28;20204;-72
2022/02/16 02:58:19;;;;;;;20.17;19.17;;;6.80;72.40;;;;;;5033292;28;20264;-72
2022/02/16 03:00:46;;;;;;;21.05;19.75;;;6.90;72.50;;;;;;5033037;28;20725;-72
2022/02/16 03:03:13;;;;;;;20.05;18.90;;;6.90;72.10;;;;;;5033284;28;20281;-72
2022/02/16 03:05:39;;;;;;;20.33;19.27;;;6.90;72.50;;;;;;5033211;28;20569;-73
2022/02/16 03:08:06;;;;;;;19.80;18.80;;;6.90;72.40;;;;;;5033133;28;20216;-72
2022/02/16 03:10:34;;;;;;;20.02;19.02;;;6.90;72.70;;;;;;5032999;28;20229;-72
2022/02/16 03:13:03;;;;;;;20.08;19.10;;;6.90;72.60;;;;;;5033289;28;20708;-72
2022/02/16 03:15:30;;;;;;;20.58;19.48;;;6.90;72.60;;;;;;5033095;28;20207;-73
2022/02/16 03:17:57;;;;;;;19.75;18.75;;;7.00;72.60;;;;;;5032928;28;20292;-73
2022/02/16 03:20:24;;;;;;;20.65;19.45;;;7.00;72.70;;;;;;5032875;28;20306;-72
2022/02/16 03:22:51;;;;;;;20.60;19.50;;;7.00;72.50;;;;;;5032877;28;20211;-72
2022/02/16 03:25:19;;;;;;;21.20;20.10;;;7.00;72.50;;;;;;5032953;28;20239;-73
2022/02/16 03:27:45;;;;;;;20.83;19.73;;;7.00;72.60;;;;;;5032372;28;20264;-72
2022/02/16 03:30:14;;;;;;;21.45;20.15;;;7.00;72.70;;;;;;5032457;28;20562;-73
2022/02/16 03:32:41;;;;;;;20.13;19.13;;;7.00;72.80;;;;;;5032856;28;20289;-73
2022/02/16 03:35:08;;;;;;;20.92;19.67;;;6.90;73.00;;;;;;5032632;28;20287;-72
2022/02/16 03:37:35;;;;;;;20.85;19.65;;;6.90;73.40;;;;;;5032749;28;20223;-73
2022/02/16 03:40:03;;;;;;;20.95;19.85;;;6.90;73.00;;;;;;5032511;28;20655;-72
2022/02/16 03:42:30;;;;;;;20.52;19.50;;;6.90;73.20;;;;;;5032816;28;20258;-73
2022/02/16 03:44:56;;;;;;;20.05;19.05;;;7.10;73.00;;;;;;5032575;28;20206;-72
2022/02/16 03:47:25;;;;;;;21.05;19.85;;;7.00;73.00;;;;;;5032552;28;20220;-72
2022/02/16 03:49:54;;;;;;;20.73;19.45;;;7.00;73.00;;;;;;5032451;28;20201;-72
2022/02/16 03:52:20;;;;;;;19.92;18.90;;;7.00;73.10;;;;;;5032465;28;20311;-72
2022/02/16 03:54:48;;;;;;;20.60;19.60;;;7.00;72.60;;;;;;5032569;28;20206;-72
2022/02/16 03:57:15;;;;;;;20.85;19.65;;;6.90;73.10;;;;;;5032441;28;20209;-72
2022/02/16 03:59:42;;;;;;;20.13;18.98;;;7.00;73.10;;;;;;5032071;28;20307;-72
2022/02/16 04:02:09;;;;;;;20.90;19.70;;;7.10;72.50;;;;;;5032436;28;20260;-72
2022/02/16 04:04:37;;;;;;;21.02;19.92;;;7.00;73.10;;;;;;5032392;28;20202;-72
2022/02/16 04:07:04;;;;;;;20.30;19.27;;;7.10;72.80;;;;;;5032096;28;20678;-72
2022/02/16 04:09:31;;;;;;;20.50;19.50;;;7.10;72.60;;;;;;5032301;28;20204;-73
2022/02/16 04:11:58;;;;;;;22.08;20.98;;;7.10;72.60;;;;;;5032167;28;20600;-73
2022/02/16 04:14:25;;;;;;;20.70;19.60;;;7.20;72.50;;;;;;5032194;28;20305;-73
2022/02/16 04:16:52;;;;;;;21.13;20.00;;;7.20;72.50;;;;;;5032362;28;20223;-72
2022/02/16 04:19:19;;;;;;;20.55;19.48;;;7.20;72.50;;;;;;5032066;28;20193;-72
2022/02/16 04:21:47;;;;;;;20.98;19.88;;;7.20;72.40;;;;;;5032070;28;20712;-73
2022/02/16 04:24:14;;;;;;;22.83;21.70;;;7.30;72.30;;;;;;5031913;28;20206;-73
2022/02/16 04:26:40;;;;;;;21.67;20.58;;;7.30;72.20;;;;;;5032201;28;20206;-72
2022/02/16 04:29:07;;;;;;;21.77;20.67;;;7.30;72.40;;;;;;5031960;28;20228;-73
2022/02/16 04:31:34;;;;;;;22.55;21.20;;;7.30;72.30;;;;;;5032017;28;20220;-73
2022/02/16 04:34:01;;;;;;;20.90;19.80;;;7.30;72.50;;;;;;5032075;28;20624;-73
2022/02/16 04:36:28;;;;;;;20.83;19.55;;;7.30;72.50;;;;;;5032109;28;20258;-72
2022/02/16 04:38:58;;;;;;;20.55;19.45;;;7.30;72.60;;;;;;5032518;28;20215;-72
2022/02/16 04:41:25;;;;;;;21.08;19.98;;;7.30;73.40;;;;;;5035721;28;20222;-72
2022/02/16 04:43:52;;;;;;;21.50;20.40;;;7.20;73.10;;;;;;5035973;28;20203;-72
2022/02/16 04:46:20;;;;;;;20.98;19.88;;;7.30;73.00;;;;;;5035879;28;20739;-72
2022/02/16 04:48:47;;;;;;;21.33;20.02;;;7.30;72.90;;;;;;5035739;28;20224;-73
2022/02/16 04:51:14;;;;;;;22.25;21.05;;;7.30;73.10;;;;;;5035542;28;20218;-72
2022/02/16 04:53:41;;;;;;;20.75;19.65;;;7.40;73.30;;;;;;5035852;28;20202;-72
2022/02/16 04:56:09;;;;;;;20.60;19.50;;;7.40;73.10;;;;;;5035401;28;20201;-72
2022/02/16 04:58:36;;;;;;;21.00;19.90;;;7.40;73.20;;;;;;5035549;28;20617;-72
2022/02/16 05:01:03;;;;;;;19.98;19.08;;;7.40;73.40;;;;;;5035401;28;20293;-73
2022/02/16 05:03:30;;;;;;;22.33;21.20;;;7.40;73.50;;;;;;5035617;28;20236;-73
2022/02/16 05:05:57;;;;;;;20.90;19.80;;;7.40;73.60;;;;;;5035614;28;20244;-72
2022/02/16 05:08:24;;;;;;;21.90;20.67;;;7.30;73.70;;;;;;5035245;28;20224;-72
2022/02/16 05:10:51;;;;;;;21.00;19.90;;;7.40;73.80;;;;;;5035120;28;20592;-72
2022/02/16 05:13:19;;;;;;;20.30;19.27;;;7.40;73.80;;;;;;5035560;28;20193;-72
2022/02/16 05:15:46;;;;;;;20.88;19.45;;;7.40;74.00;;;;;;5035337;28;20574;-72
2022/02/16 05:18:13;;;;;;;22.70;21.60;;;7.50;73.90;;;;;;5035297;28;20199;-72
2022/02/16 05:20:40;;;;;;;20.00;19.00;;;7.40;74.10;;;;;;5034998;28;20275;-72
2022/02/16 05:23:07;;;;;;;20.58;19.50;;;7.50;74.00;;;;;;5035059;28;20233;-72
2022/02/16 05:25:34;;;;;;;19.80;18.80;;;7.50;74.10;;;;;;5035287;28;20232;-72
2022/02/16 05:28:01;;;;;;;21.35;20.23;;;7.40;74.10;;;;;;5035065;28;20697;-73
2022/02/16 05:30:29;;;;;;;21.55;20.35;;;7.40;74.30;;;;;;5034689;28;20217;-73
2022/02/16 05:32:56;;;;;;;20.45;19.33;;;7.40;74.30;;;;;;5034978;28;20289;-73
2022/02/16 05:35:23;;;;;;;21.02;19.92;;;7.40;74.60;;;;;;5034830;28;20203;-73
2022/02/16 05:37:50;;;;;;;20.90;19.80;;;7.50;74.50;;;;;;5034987;28;20280;-73
2022/02/16 05:40:17;;;;;;;22.70;21.45;;;7.50;74.40;;;;;;5034740;28;20216;-73
2022/02/16 05:42:44;;;;;;;21.50;20.40;;;7.50;74.50;;;;;;5034844;28;20207;-72
2022/02/16 05:45:11;;;;;;;20.15;19.13;;;7.50;74.70;;;;;;5034867;28;20208;-73
2022/02/16 05:47:39;;;;;;;21.05;19.98;;;7.50;74.70;;;;;;5034542;28;20224;-73
2022/02/16 05:50:07;;;;;;;20.60;19.50;;;7.50;74.90;;;;;;5034106;28;20207;-73
2022/02/16 05:52:34;;;;;;;21.30;20.10;;;7.50;75.00;;;;;;5034916;28;20200;-72
2022/02/16 05:55:01;;;;;;;20.77;19.67;;;7.50;74.90;;;;;;5034657;28;20240;-72
2022/02/16 05:57:28;;;;;;;21.50;20.40;;;7.50;75.00;;;;;;5034672;28;20204;-73
2022/02/16 05:59:55;;;;;;;20.85;19.75;;;7.40;75.40;;;;;;5034348;28;20210;-73
2022/02/16 06:02:21;;;;;;;20.70;19.70;;;7.50;75.40;;;;;;5034410;28;20249;-72
2022/02/16 06:04:51;;;;;;;21.85;20.75;;;7.40;75.50;;;;;;5034379;28;20194;-73
2022/02/16 06:07:17;;;;;;;21.70;20.60;;;7.40;76.00;;;;;;5034298;28;20219;-72
2022/02/16 06:09:44;;;;;;;21.30;20.20;;;7.50;75.80;;;;;;5034088;28;20646;-72
2022/02/16 06:12:11;;;;;;;21.30;20.20;;;7.50;75.50;;;;;;5034219;28;20220;-73
2022/02/16 06:14:38;;;;;;;23.08;22.08;;;7.50;75.80;;;;;;5034234;28;20674;-72
2022/02/16 06:17:05;;;;;;;22.90;21.60;;;7.40;76.00;;;;;;5034270;28;20309;-73
2022/02/16 06:19:32;;;;;;;22.85;21.65;;;7.40;75.90;;;;;;5033987;28;20193;-72
2022/02/16 06:22:00;;;;;;;21.48;20.38;;;7.50;76.10;;;;;;5034112;28;20217;-73
2022/02/16 06:24:27;;;;;;;22.80;21.45;;;7.40;76.50;;;;;;5033877;28;20295;-72
2022/02/16 06:26:55;;;;;;;23.42;22.05;;;7.60;76.10;;;;;;5034095;28;20202;-73
2022/02/16 06:29:22;;;;;;;24.17;23.08;;;7.60;76.00;;;;;;5033487;28;20702;-72
2022/02/16 06:31:49;;;;;;;23.13;21.83;;;7.60;76.10;;;;;;5033942;28;20304;-72
2022/02/16 06:34:16;;;;;;;25.27;24.08;;;7.60;76.20;;;;;;5033806;28;20291;-72
2022/02/16 06:36:43;;;;;;;22.17;20.98;;;7.70;75.80;;;;;;5033754;28;20239;-72
2022/02/16 06:39:11;;;;;;;20.70;19.60;;;7.60;76.00;;;;;;5033779;28;20200;-72
2022/02/16 06:41:38;;;;;;;24.40;23.20;;;7.60;76.20;;;;;;5033720;28;20566;-72
2022/02/16 06:44:05;;;;;;;23.92;22.80;;;7.60;76.40;;;;;;5033606;28;20197;-72
2022/02/16 06:46:32;;;;;;;23.17;22.08;;;7.50;76.60;;;;;;5033576;28;20295;-73
2022/02/16 06:49:05;;;;;;;23.27;21.60;;;7.50;76.80;;;;;;5033557;28;20230;-72
2022/02/16 06:51:33;;;;;;;22.98;21.75;;;7.60;76.70;;;;;;5033519;28;20772;-72
2022/02/16 06:54:00;;;;;;;21.85;20.55;;;7.70;76.60;;;;;;5033594;28;20258;-72
2022/02/16 06:56:30;;;;;;;21.42;20.33;;;7.80;76.10;;;;;;5033511;28;20204;-72
2022/02/16 06:58:57;;;;;;;21.25;20.25;;;7.80;76.10;;;;;;5033465;28;20204;-72
2022/02/16 07:01:24;;;;;;;23.33;22.13;;;7.80;76.90;;;;;;5032787;28;20224;-72
2022/02/16 07:03:51;;;;;;;21.55;20.45;;;7.80;76.40;;;;;;5033156;28;20465;-73
2022/02/16 07:06:18;;;;;;;23.88;22.50;;;7.80;76.20;;;;;;5033284;28;20252;-73
2022/02/16 07:08:45;;;;;;;23.75;22.55;;;7.80;76.10;;;;;;5033025;28;20227;-72
2022/02/16 07:11:12;;;;;;;21.45;20.35;;;7.90;76.00;;;;;;5032970;28;20319;-72
2022/02/16 07:13:40;;;;;;;21.48;20.38;;;7.90;76.10;;;;;;5033154;28;20210;-73
2022/02/16 07:16:07;;;;;;;21.63;20.48;;;7.80;76.30;;;;;;5032904;28;20197;-72
2022/02/16 07:18:37;;;;;;;22.15;20.95;;;7.90;76.80;;;;;;5033216;28;20205;-73
2022/02/16 07:21:04;;;;;;;22.35;21.15;;;8.00;76.10;;;;;;5032899;28;20283;-72
2022/02/16 07:23:31;;;;;;;23.23;22.05;;;8.00;76.10;;;;;;5032821;28;20293;-72
2022/02/16 07:25:58;;;;;;;21.35;20.25;;;8.10;76.10;;;;;;5033105;28;20212;-72
2022/02/16 07:28:25;;;;;;;22.73;21.42;;;8.10;76.20;;;;;;5032767;28;20231;-73
2022/02/16 07:30:53;;;;;;;25.15;23.65;;;8.00;76.70;;;;;;5032773;28;20224;-72
2022/02/16 07:33:21;;;;;;;23.38;22.15;;;7.90;77.00;;;;;;5033048;28;20216;-73
2022/02/16 07:35:48;;;;;;;21.23;20.13;;;8.00;77.30;;;;;;5032508;28;20208;-72
2022/02/16 07:38:14;;;;;;;22.33;21.23;;;7.90;77.90;;;;;;5032757;28;20204;-72
2022/02/16 07:40:42;;;;;;;21.92;20.83;;;8.00;78.40;;;;;;5032617;28;20217;-72
2022/02/16 07:43:09;;;;;;;21.65;20.65;;;7.90;78.30;;;;;;5033033;28;20227;-72
2022/02/16 07:45:36;;;;;;;21.27;20.08;;;7.90;79.00;;;;;;5032597;28;20278;-72
2022/02/16 07:48:04;;;;;;;21.98;20.98;;;7.90;79.10;;;;;;5032493;28;20197;-72
2022/02/16 07:50:31;;;;;;;21.95;20.75;;;7.90;79.30;;;;;;5032183;28;20287;-72
2022/02/16 07:53:01;;;;;;;21.90;20.73;;;7.90;79.40;;;;;;5032794;28;20284;-72
2022/02/16 07:55:28;;;;;;;23.50;22.20;;;7.90;79.60;;;;;;5033508;28;20247;-73
2022/02/16 07:57:58;;;;;;;22.85;21.70;;;7.80;80.20;;;;;;5033162;28;20204;-72
2022/02/16 08:00:25;;;;;;;25.50;23.90;;;7.80;80.70;;;;;;5032681;28;20225;-73
2022/02/16 08:02:52;;;;;;;23.08;21.98;;;7.80;80.60;;;;;;5032877;28;20211;-72
2022/02/16 08:05:20;;;;;;;22.85;21.67;;;7.80;81.10;;;;;;5032599;28;20197;-73
2022/02/16 08:07:47;;;;;;;21.10;20.00;;;7.80;81.40;;;;;;5032423;28;20205;-72
2022/02/16 08:10:14;;;;;;;21.45;20.35;;;7.80;81.70;;;;;;5032109;28;20268;-73
2022/02/16 08:12:45;;;;;;;22.60;21.35;;;7.80;82.20;;;;;;5032897;28;20303;-73
2022/02/16 08:15:12;;;;;;;24.25;23.15;;;7.80;82.90;;;;;;5039036;28;20289;-73
2022/02/16 08:17:39;;;;;;;25.05;23.65;;;7.80;82.30;;;;;;5038742;28;20239;-73
2022/02/16 08:20:08;;;;;;;24.90;23.00;;;7.80;82.80;;;;;;5038613;28;20193;-73
2022/02/16 08:22:36;;;;;;;21.17;20.08;;;7.90;82.50;;;;;;5038936;28;20259;-72
2022/02/16 08:25:04;;;;;;;24.23;23.23;;;7.90;82.50;;;;;;5038623;28;20209;-72
2022/02/16 08:27:31;;;;;;;23.02;21.83;;;7.80;82.60;;;;;;5038912;28;20200;-72
2022/02/16 08:29:58;;;;;;;21.60;20.40;;;7.80;82.80;;;;;;5038294;28;20225;-72
2022/02/16 08:32:25;;;;;;;22.58;21.40;;;7.80;83.40;;;;;;5038853;28;20651;-72
2022/02/16 08:34:52;;;;;;;23.65;22.55;;;7.80;83.30;;;;;;5038723;28;20263;-72
2022/02/16 08:37:19;;;;;;;23.02;21.65;;;7.80;83.50;;;;;;5038763;28;20240;-73
2022/02/16 08:39:48;;;;;;;21.17;20.08;;;7.80;83.20;;;;;;5038494;28;20189;-73
2022/02/16 08:42:14;;;;;;;22.58;21.17;;;7.80;83.40;;;;;;5038686;28;20307;-73
2022/02/16 08:44:41;;;;;;;21.60;20.42;;;7.80;83.20;;;;;;5038546;28;20197;-72
2022/02/16 08:47:09;;;;;;;20.35;19.30;;;7.80;84.10;;;;;;5038623;28;20207;-72
2022/02/16 08:49:38;;;;;;;21.13;20.23;;;7.90;84.40;;;;;;5038303;28;20267;-72
2022/02/16 08:52:06;;;;;;;20.35;19.35;;;7.90;84.00;;;;;;5038441;28;20295;-73
2022/02/16 08:54:33;;;;;;;22.40;20.90;;;7.90;84.10;;;;;;5038660;28;20207;-73
2022/02/16 08:57:03;;;;;;;20.63;19.45;;;7.90;84.00;;;;;;5038542;28;20207;-73
2022/02/16 08:59:30;;;;;;;21.45;20.25;;;7.90;84.50;;;;;;5038302;28;20215;-73
2022/02/16 09:01:58;;;;;;;22.08;20.88;;;7.80;85.20;;;;;;5038364;28;20221;-73
2022/02/16 09:04:25;;;;;;;19.70;18.70;;;7.80;85.00;;;;;;5038520;28;20201;-72
2022/02/16 09:09:38;;;;;;;20.70;19.70;;;7.80;85.40;;;;;;5038193;28;20216;-72
2022/02/16 09:12:08;;;;;;;21.10;20.00;;;7.80;86.10;;;;;;5038566;28;20232;-72
2022/02/16 09:14:36;;;;;;;20.27;19.15;;;7.70;85.70;;;;;;5038480;28;20229;-73
2022/02/16 09:17:04;;;;;;;20.92;19.67;;;7.70;85.80;;;;;;5038200;28;20251;-73
2022/02/16 09:19:33;;;;;;;18.90;17.83;;;7.80;86.20;;;;;;5038250;28;20200;-73
2022/02/16 09:22:00;;;;;;;20.10;19.05;;;7.90;85.90;;;;;;5038212;28;20220;-73
2022/02/16 09:24:27;;;;;;;19.30;18.30;;;7.90;86.20;;;;;;5037074;28;20202;-73
2022/02/16 09:26:54;;;;;;;20.08;18.95;;;8.00;86.20;;;;;;5034993;28;20237;-73
2022/02/16 09:29:24;;;;;;;20.08;19.00;;;8.10;86.00;;;;;;5034753;28;20223;-72
2022/02/16 09:31:53;;;;;;;18.55;17.55;;;8.20;85.60;;;;;;5035037;28;20631;-73
2022/02/16 09:34:20;;;;;;;18.50;17.60;;;8.20;86.00;;;;;;5034995;28;20201;-73
2022/02/16 09:36:47;;;;;;;20.08;18.98;;;8.30;85.10;;;;;;5034943;28;20207;-73
2022/02/16 09:39:15;;;;;;;19.35;18.25;;;8.30;85.00;;;;;;5034808;28;20266;-73
2022/02/16 09:41:44;;;;;;;19.80;18.70;;;8.40;85.10;;;;;;5034890;28;20327;-73
2022/02/16 09:46:40;;;;;;;20.88;19.77;;;8.40;85.00;;;;;;5072393;28;20226;-73
2022/02/16 09:49:07;;;;;;;19.73;18.70;;;8.50;85.30;;;;;;5074542;28;20660;-73
2022/02/16 09:51:34;;;;;;;20.00;19.00;;;8.50;84.30;;;;;;5074547;28;20251;-73
2022/02/16 09:54:01;;;;;;;20.98;19.98;;;8.50;84.40;;;;;;5074570;28;20209;-73
2022/02/16 09:56:28;;;;;;;20.13;19.02;;;8.60;83.80;;;;;;5074605;28;20283;-73
2022/02/16 09:58:55;;;;;;;19.90;18.80;;;8.60;84.10;;;;;;5074393;28;20232;-73
2022/02/16 10:01:21;;;;;;;22.10;20.65;;;8.70;83.40;;;;;;5074450;28;20234;-73
2022/02/16 10:04:01;;;;;;;20.27;19.27;;;8.60;83.30;;;;;;5074442;28;20583;-73
2022/02/16 10:06:36;;;;;;;19.67;18.58;;;8.70;83.10;;;;;;5074499;28;20228;-73
2022/02/16 10:09:04;;;;;;;22.38;20.80;;;8.70;83.40;;;;;;5074110;28;20191;-73
2022/02/16 10:11:31;;;;;;;21.38;19.83;;;8.90;83.40;;;;;;5074195;28;20569;-73
2022/02/16 10:14:17;;;;;;;20.25;19.05;;;9.00;82.80;;;;;;5074115;28;20249;-73
2022/02/16 10:16:44;;;;;;;21.63;19.90;;;9.00;82.40;;;;;;5074246;28;20227;-73
2022/02/16 10:19:12;;;;;;;19.48;18.58;;;9.00;81.80;;;;;;5073878;28;20286;-73
2022/02/16 10:21:40;;;;;;;21.40;20.02;;;9.10;81.70;;;;;;5074170;28;20300;-73
2022/02/16 10:24:20;;;;;;;19.83;18.92;;;9.00;81.80;;;;;;5073677;28;20207;-73
2022/02/16 10:26:53;;;;;;;20.00;19.00;;;9.10;81.50;;;;;;5073816;28;20206;-73
2022/02/16 10:29:21;;;;;;;21.60;20.40;;;9.30;81.60;;;;;;5073637;28;20223;-73
2022/02/16 10:31:48;;;;;;;19.95;18.85;;;9.30;80.70;;;;;;5073934;28;20312;-73
2022/02/16 10:34:17;;;;;;;20.73;19.75;;;9.30;81.30;;;;;;5073626;28;20203;-73
2022/02/16 10:36:46;;;;;;;19.85;18.90;;;9.40;80.40;;;;;;5072632;28;20708;-73
2022/02/16 10:39:16;;;;;;;20.35;19.35;;;9.40;80.70;;;;;;5073437;28;20201;-73
2022/02/16 10:41:45;;;;;;;22.60;21.35;;;9.50;80.50;;;;;;5073879;28;20261;-73
2022/02/16 10:44:20;;;;;;;20.75;19.75;;;9.60;80.00;;;;;;5073522;28;20238;-74
2022/02/16 10:47:00;;;;;;;21.15;20.05;;;9.70;80.10;;;;;;5073400;28;20209;-73
2022/02/16 10:49:28;;;;;;;20.83;19.75;;;9.80;80.10;;;;;;5073242;28;20623;-73
2022/02/16 10:52:08;;;;;;;20.70;19.70;;;9.80;79.30;;;;;;5073388;28;20209;-73
2022/02/16 10:54:36;;;;;;;21.42;20.23;;;10.00;79.10;;;;;;5073455;28;20228;-73
2022/02/16 10:57:04;;;;;;;21.35;20.23;;;10.20;79.00;;;;;;5073211;28;20192;-73
2022/02/16 10:59:31;;;;;;;21.67;20.67;;;10.30;78.30;;;;;;5073060;28;20668;-72
2022/02/16 11:02:03;;;;;;;20.67;19.67;;;10.50;77.60;;;;;;5073113;28;20602;-73
2022/02/16 11:04:32;;;;;;;21.20;20.10;;;10.60;77.30;;;;;;5073175;28;20487;-73
2022/02/16 11:07:00;;;;;;;21.83;20.73;;;10.70;77.10;;;;;;5073025;28;20515;-73
2022/02/16 11:09:30;;;;;;;22.20;21.00;;;10.90;77.00;;;;;;5072876;28;20450;-73
2022/02/16 11:11:57;;;;;;;21.37;20.27;;;10.90;77.10;;;;;;5073027;28;20524;-73
2022/02/16 11:14:28;;;;;;;21.93;20.77;;;11.00;76.90;;;;;;5072878;28;20492;-73
2022/02/16 11:16:56;;;;;;;21.73;20.53;;;11.00;77.20;;;;;;5072873;28;20935;-73
2022/02/16 11:19:25;;;;;;;22.13;21.03;;;11.10;76.70;;;;;;5072725;28;20452;-73
2022/02/16 11:22:02;;;;;;;21.00;20.00;;;11.30;76.20;;;;;;5072941;28;20554;-73
2022/02/16 11:24:31;;;;;;;22.20;21.10;;;11.30;76.20;;;;;;5072543;28;20463;-71
2022/02/16 11:26:58;;;;;;;21.07;19.97;;;11.40;76.00;;;;;;5072876;28;20508;-72
2022/02/16 11:29:38;;;;;;;23.97;22.87;;;11.50;76.60;;;;;;5072244;28;20983;-73
2022/02/16 11:32:22;;;;;;;21.50;20.40;;;11.70;75.40;;;;;;5072734;28;20554;-73
2022/02/16 11:35:17;;;;;;;21.30;20.30;;;11.90;74.70;;;;;;5072768;28;20450;-73
2022/02/16 11:37:47;;;;;;;21.27;20.17;;;12.10;74.50;;;;;;5072567;28;20451;-73
2022/02/16 11:40:15;;;;;;;22.20;21.10;;;12.20;73.80;;;;;;5072330;28;20540;-73
2022/02/16 11:42:56;;;;;;;21.80;20.70;;;12.20;74.00;;;;;;5072772;28;20530;-73
2022/02/16 11:45:55;;;;;;;23.47;22.27;;;12.30;74.20;;;;;;5072499;28;20457;-73
2022/02/16 11:48:43;;;;;;;22.37;21.17;;;12.30;74.20;;;;;;5072149;28;20939;-73
2022/02/16 11:51:33;;;;;;;23.60;22.30;;;12.30;74.30;;;;;;5072250;28;21038;-73
2022/02/16 11:54:33;;;;;;;21.97;20.87;;;12.20;74.30;;;;;;5072483;28;20456;-73
2022/02/16 11:57:46;;;;;;;21.50;20.40;;;12.30;74.40;;;;;;5072506;28;21043;-73
2022/02/16 12:00:26;;;;;;;21.40;20.30;;;12.50;74.20;;;;;;5072256;28;20527;-73
2022/02/16 12:03:17;;;;;;;22.63;21.43;;;12.40;74.00;;;;;;5072524;28;20453;-73
2022/02/16 12:05:51;;;;;;;21.90;20.70;;;12.30;74.90;;;;;;5072418;28;20450;-73
2022/02/16 12:08:20;;;;;;;21.90;20.80;;;12.20;75.20;;;;;;5072310;28;20487;-73
2022/02/16 12:10:49;;;;;;;21.93;20.63;;;12.20;75.20;;;;;;5072079;28;20908;-73
2022/02/16 12:13:26;;;;;;;22.97;21.87;;;12.20;75.90;;;;;;5072215;28;20793;-73
2022/02/16 12:15:57;;;;;;;21.20;20.20;;;12.10;76.80;;;;;;5072331;28;20457;-73
2022/02/16 12:18:25;;;;;;;20.77;19.73;;;12.10;77.70;;;;;;5072320;28;20553;-73
2022/02/16 12:20:53;;;;;;;20.93;19.93;;;12.00;78.30;;;;;;5072143;28;20502;-73
2022/02/16 12:23:20;;;;;;;22.80;21.60;;;12.10;78.30;;;;;;5071963;28;20535;-73
2022/02/16 12:26:01;;;;;;;21.60;20.50;;;12.00;78.70;;;;;;5072185;28;20542;-73
2022/02/16 12:28:29;;;;;;;21.03;19.97;;;12.10;78.70;;;;;;5071988;28;20853;-71
2022/02/16 12:30:56;;;;;;;22.17;20.97;;;12.20;78.50;;;;;;5071751;28;20852;-73
2022/02/16 12:33:24;;;;;;;22.70;21.60;;;12.20;79.00;;;;;;5072343;28;20478;-74
2022/02/16 12:35:52;;;;;;;21.60;20.47;;;12.10;79.70;;;;;;5072036;28;20817;-73
2022/02/16 12:38:23;;;;;;;22.70;21.30;;;12.20;80.00;;;;;;5071756;28;20564;-73
2022/02/16 12:40:50;;;;;;;21.50;20.30;;;12.20;80.40;;;;;;5071726;28;20543;-73
2022/02/16 12:43:17;;;;;;;20.93;19.83;;;12.20;80.20;;;;;;5072000;28;20533;-73
2022/02/16 12:45:48;;;;;;;21.63;20.53;;;12.20;80.20;;;;;;5071773;28;20465;-73
2022/02/16 12:48:17;;;;;;;20.57;19.57;;;12.20;79.80;;;;;;5071808;28;20460;-73